Time,TemperatureF,DewpointF,PressureIn,WindDirection,WindDirectionDegrees,WindSpeedMPH,WindSpeedGustMPH,Humidity,HourlyPrecipIn,Conditions,Clouds,dailyrainin,SoftwareType,DateUTC
2013-03-17 00:02:00,50.0,46.0,29.82,North,10,0.0,0.0,87,0.00,,,-99.99,,2013-03-17 07:02:00,
2013-03-17 00:12:00,50.0,46.0,29.82,North,10,0.0,0.0,87,0.00,,,-99.99,,2013-03-17 07:12:00,
2013-03-17 00:21:00,50.0,46.0,29.83,North,11,0.0,1.0,87,0.00,,,-99.99,,2013-03-17 07:21:00,
2013-03-17 00:32:00,50.0,46.0,29.83,North,11,0.0,1.0,87,0.00,,,-99.99,,2013-03-17 07:32:00,
2013-03-17 00:42:00,50.0,46.0,29.83,North,11,0.0,1.0,87,0.00,,,-99.99,,2013-03-17 07:42:00,
2013-03-17 00:52:00,49.0,45.0,29.82,North,11,0.0,0.0,87,0.00,,,-99.99,,2013-03-17 07:52:00,
2013-03-17 01:02:00,49.0,45.0,29.82,North,11,0.0,0.0,87,0.00,,,-99.99,,2013-03-17 08:02:00,
2013-03-17 01:12:00,49.0,46.0,29.83,North,11,0.0,1.0,88,0.00,,,-99.99,,2013-03-17 08:12:00,
2013-03-17 01:22:00,49.0,46.0,29.83,North,11,0.0,1.0,88,0.00,,,-99.99,,2013-03-17 08:22:00,
2013-03-17 01:32:00,49.0,46.0,29.83,North,11,0.0,1.0,88,0.00,,,-99.99,,2013-03-17 08:32:00,
2013-03-17 01:42:00,49.0,46.0,29.83,North,11,0.0,1.0,88,0.00,,,-99.99,,2013-03-17 08:42:00,
2013-03-17 01:51:00,49.0,46.0,29.83,North,11,0.0,1.0,88,0.00,,,-99.99,,2013-03-17 08:51:00,
2013-03-17 02:22:00,48.0,45.0,29.83,ENE,57,0.0,2.0,89,0.00,,,-99.99,,2013-03-17 09:22:00,
2013-03-17 02:32:00,48.0,45.0,29.83,ENE,57,0.0,2.0,89,0.00,,,-99.99,,2013-03-17 09:32:00,
2013-03-17 02:42:00,48.0,45.0,29.83,ENE,57,0.0,2.0,89,0.00,,,-99.99,,2013-03-17 09:42:00,
2013-03-17 02:52:00,48.0,45.0,29.82,ENE,57,0.0,1.0,89,0.00,,,-99.99,,2013-03-17 09:52:00,
2013-03-17 03:03:00,48.0,45.0,29.82,ENE,57,0.0,1.0,89,0.00,,,-99.99,,2013-03-17 10:03:00,
2013-03-17 03:12:00,48.0,45.0,29.82,ENE,57,0.0,1.0,89,0.00,,,-99.99,,2013-03-17 10:12:00,
2013-03-17 03:23:00,48.0,45.0,29.82,North,355,0.0,1.0,89,0.00,,,-99.99,,2013-03-17 10:23:00,
2013-03-17 03:33:00,48.0,45.0,29.82,North,355,0.0,1.0,89,0.00,,,-99.99,,2013-03-17 10:33:00,
2013-03-17 03:42:00,48.0,45.0,29.82,North,355,0.0,1.0,89,0.00,,,-99.99,,2013-03-17 10:42:00,
2013-03-17 03:52:00,47.0,44.0,29.82,North,355,0.0,0.0,89,0.00,,,-99.99,,2013-03-17 10:52:00,
2013-03-17 04:02:00,47.0,44.0,29.82,North,355,0.0,0.0,89,0.00,,,-99.99,,2013-03-17 11:02:00,
2013-03-17 04:12:00,47.0,44.0,29.82,North,355,0.0,0.0,89,0.00,,,-99.99,,2013-03-17 11:12:00,
2013-03-17 04:21:00,47.0,44.0,29.81,North,355,0.0,3.0,89,0.00,,,-99.99,,2013-03-17 11:21:00,
2013-03-17 04:32:00,47.0,44.0,29.81,North,355,0.0,3.0,89,0.00,,,-99.99,,2013-03-17 11:32:00,
2013-03-17 04:42:00,47.0,44.0,29.81,North,355,0.0,3.0,89,0.00,,,-99.99,,2013-03-17 11:42:00,
2013-03-17 04:51:00,48.0,45.0,29.82,North,355,0.0,0.0,90,0.00,,,-99.99,,2013-03-17 11:51:00,
2013-03-17 05:02:00,48.0,45.0,29.82,North,355,0.0,0.0,90,0.00,,,-99.99,,2013-03-17 12:02:00,
2013-03-17 05:12:00,48.0,45.0,29.82,North,355,0.0,0.0,90,0.00,,,-99.99,,2013-03-17 12:12:00,
2013-03-17 05:21:00,48.0,45.0,29.82,North,355,0.0,0.0,90,0.00,,,-99.99,,2013-03-17 12:21:00,
2013-03-17 05:32:00,48.0,45.0,29.82,North,355,0.0,0.0,90,0.00,,,-99.99,,2013-03-17 12:32:00,
2013-03-17 05:42:00,48.0,45.0,29.82,North,355,0.0,0.0,90,0.00,,,-99.99,,2013-03-17 12:42:00,
2013-03-17 05:52:00,48.0,45.0,29.83,North,355,0.0,0.0,90,0.00,,,-99.99,,2013-03-17 12:52:00,
2013-03-17 06:02:00,48.0,45.0,29.83,North,355,0.0,0.0,90,0.00,,,-99.99,,2013-03-17 13:02:00,
2013-03-17 06:12:00,48.0,45.0,29.83,North,355,0.0,0.0,90,0.00,,,-99.99,,2013-03-17 13:12:00,
2013-03-17 06:21:00,49.0,46.0,29.84,North,355,0.0,1.0,91,0.00,,,-99.99,,2013-03-17 13:21:00,
2013-03-17 06:52:00,49.0,46.0,29.84,North,355,0.0,1.0,91,0.00,,,-99.99,,2013-03-17 13:52:00,
2013-03-17 07:02:00,49.0,46.0,29.84,North,355,0.0,1.0,91,0.00,,,-99.99,,2013-03-17 14:02:00,
2013-03-17 07:12:00,49.0,46.0,29.84,North,355,0.0,1.0,91,0.00,,,-99.99,,2013-03-17 14:12:00,
2013-03-17 07:52:00,49.0,46.0,29.84,North,355,0.0,2.0,91,0.00,,,-99.99,,2013-03-17 14:52:00,
2013-03-17 08:02:00,49.0,46.0,29.84,North,355,0.0,2.0,91,0.00,,,-99.99,,2013-03-17 15:02:00,
2013-03-17 08:12:00,49.0,46.0,29.84,North,355,0.0,2.0,91,0.00,,,-99.99,,2013-03-17 15:12:00,
2013-03-17 08:22:00,48.0,46.0,29.85,NE,55,1.0,4.0,92,0.00,,,-99.99,,2013-03-17 15:22:00,
2013-03-17 08:33:00,48.0,46.0,29.85,NE,55,1.0,4.0,92,0.00,,,-99.99,,2013-03-17 15:33:00,
2013-03-17 08:42:00,48.0,46.0,29.85,NE,55,1.0,4.0,92,0.00,,,-99.99,,2013-03-17 15:42:00,
2013-03-17 08:52:00,48.0,46.0,29.85,NNE,17,0.0,2.0,92,0.00,,,-99.99,,2013-03-17 15:52:00,
2013-03-17 09:03:00,48.0,46.0,29.85,NNE,17,0.0,2.0,92,0.00,,,-99.99,,2013-03-17 16:03:00,
2013-03-17 09:12:00,48.0,46.0,29.85,NNE,17,0.0,2.0,92,0.00,,,-99.99,,2013-03-17 16:12:00,
2013-03-17 09:22:00,48.0,46.0,29.86,NNE,17,0.0,1.0,92,0.00,,,-99.99,,2013-03-17 16:22:00,
2013-03-17 09:33:00,48.0,46.0,29.86,NNE,17,0.0,1.0,92,0.00,,,-99.99,,2013-03-17 16:33:00,
2013-03-17 09:42:00,48.0,46.0,29.86,NNE,17,0.0,1.0,92,0.00,,,-99.99,,2013-03-17 16:42:00,
2013-03-17 09:52:00,49.0,47.0,29.88,NNE,17,0.0,1.0,92,0.00,,,-99.99,,2013-03-17 16:52:00,
2013-03-17 10:02:00,49.0,47.0,29.88,NNE,17,0.0,1.0,92,0.00,,,-99.99,,2013-03-17 17:02:00,
2013-03-17 10:12:00,49.0,47.0,29.88,NNE,17,0.0,1.0,92,0.00,,,-99.99,,2013-03-17 17:12:00,
2013-03-17 10:22:00,51.0,49.0,29.88,NNW,329,0.0,4.0,92,0.00,,,-99.99,,2013-03-17 17:22:00,
2013-03-17 10:33:00,51.0,49.0,29.88,NNW,329,0.0,4.0,92,0.00,,,-99.99,,2013-03-17 17:33:00,
2013-03-17 10:42:00,51.0,49.0,29.88,NNW,329,0.0,4.0,92,0.00,,,-99.99,,2013-03-17 17:42:00,
2013-03-17 10:52:00,51.0,49.0,29.88,WNW,284,1.0,6.0,93,0.00,,,-99.99,,2013-03-17 17:52:00,
2013-03-17 11:02:00,51.0,49.0,29.88,WNW,284,1.0,6.0,93,0.00,,,-99.99,,2013-03-17 18:02:00,
2013-03-17 11:12:00,51.0,49.0,29.88,WNW,284,1.0,6.0,93,0.00,,,-99.99,,2013-03-17 18:12:00,
2013-03-17 11:21:00,52.0,50.0,29.89,WNW,284,0.0,2.0,93,0.00,,,-99.99,,2013-03-17 18:21:00,
2013-03-17 11:32:00,52.0,50.0,29.89,WNW,284,0.0,2.0,93,0.00,,,-99.99,,2013-03-17 18:32:00,
2013-03-17 11:42:00,52.0,50.0,29.89,WNW,284,0.0,2.0,93,0.00,,,-99.99,,2013-03-17 18:42:00,
2013-03-17 11:52:00,53.0,51.0,29.88,WNW,282,2.0,6.0,92,0.00,,,-99.99,,2013-03-17 18:52:00,
2013-03-17 12:02:00,53.0,51.0,29.88,WNW,282,2.0,6.0,92,0.00,,,-99.99,,2013-03-17 19:02:00,
2013-03-17 12:12:00,53.0,51.0,29.88,WNW,282,2.0,6.0,92,0.00,,,-99.99,,2013-03-17 19:12:00,
2013-03-17 12:22:00,55.0,53.0,29.88,West,280,1.0,5.0,92,0.00,,,-99.99,,2013-03-17 19:22:00,
2013-03-17 12:32:00,55.0,53.0,29.88,West,280,1.0,5.0,92,0.00,,,-99.99,,2013-03-17 19:32:00,
2013-03-17 12:41:00,55.0,53.0,29.88,West,280,1.0,5.0,92,0.00,,,-99.99,,2013-03-17 19:41:00,
2013-03-17 12:51:00,59.0,53.0,29.86,WSW,250,3.0,8.0,80,0.00,,,-99.99,,2013-03-17 19:51:00,
2013-03-17 12:52:00,56.0,52.0,29.87,WNW,298,2.0,8.0,87,0.00,,,-99.99,,2013-03-17 19:52:00,
2013-03-17 13:02:00,56.0,52.0,29.87,WNW,298,2.0,8.0,87,0.00,,,-99.99,,2013-03-17 20:02:00,
2013-03-17 13:12:00,56.0,52.0,29.87,WNW,298,2.0,8.0,87,0.00,,,-99.99,,2013-03-17 20:12:00,
2013-03-17 13:22:00,59.0,53.0,29.86,WSW,250,3.0,8.0,80,0.00,,,-99.99,,2013-03-17 20:22:00,
2013-03-17 13:32:00,59.0,53.0,29.86,WSW,250,3.0,8.0,80,0.00,,,-99.99,,2013-03-17 20:32:00,
2013-03-17 13:42:00,59.0,53.0,29.86,WSW,250,3.0,8.0,80,0.00,,,-99.99,,2013-03-17 20:42:00,
2013-03-17 14:22:00,64.0,52.0,29.83,SSW,211,2.0,11.0,65,0.00,,,-99.99,,2013-03-17 21:22:00,
2013-03-17 14:33:00,64.0,52.0,29.83,SSW,211,2.0,11.0,65,0.00,,,-99.99,,2013-03-17 21:33:00,
2013-03-17 14:42:00,64.0,52.0,29.83,SSW,211,2.0,11.0,65,0.00,,,-99.99,,2013-03-17 21:42:00,
2013-03-17 14:52:00,65.0,52.0,29.83,SW,227,2.0,8.0,63,0.00,,,-99.99,,2013-03-17 21:52:00,
2013-03-17 15:03:00,65.0,52.0,29.83,SW,227,2.0,8.0,63,0.00,,,-99.99,,2013-03-17 22:03:00,
2013-03-17 15:12:00,66.0,51.0,29.81,WSW,244,1.0,5.0,59,0.00,,,-99.99,,2013-03-17 22:12:00,
2013-03-17 15:22:00,66.0,51.0,29.81,WSW,244,1.0,5.0,59,0.00,,,-99.99,,2013-03-17 22:22:00,
2013-03-17 15:33:00,66.0,51.0,29.81,WSW,244,1.0,5.0,59,0.00,,,-99.99,,2013-03-17 22:33:00,
2013-03-17 15:42:00,66.0,51.0,29.81,WSW,244,1.0,5.0,59,0.00,,,-99.99,,2013-03-17 22:42:00,
2013-03-17 15:52:00,66.0,51.0,29.81,SW,234,1.0,7.0,58,0.00,,,-99.99,,2013-03-17 22:52:00,
2013-03-17 16:02:00,66.0,51.0,29.81,SW,234,1.0,7.0,58,0.00,,,-99.99,,2013-03-17 23:02:00,
2013-03-17 16:12:00,66.0,51.0,29.81,SW,234,1.0,7.0,58,0.00,,,-99.99,,2013-03-17 23:12:00,
2013-03-17 16:21:00,66.0,50.0,29.80,SW,222,1.0,6.0,57,0.00,,,-99.99,,2013-03-17 23:21:00,
2013-03-17 16:32:00,66.0,50.0,29.80,SW,222,1.0,6.0,57,0.00,,,-99.99,,2013-03-17 23:32:00,
2013-03-17 16:42:00,66.0,50.0,29.80,SW,222,1.0,6.0,57,0.00,,,-99.99,,2013-03-17 23:42:00,
2013-03-17 16:52:00,64.0,49.0,29.80,SW,221,1.0,7.0,59,0.00,,,-99.99,,2013-03-17 23:52:00,
2013-03-17 17:03:00,64.0,49.0,29.80,SW,221,1.0,7.0,59,0.00,,,-99.99,,2013-03-18 00:03:00,
2013-03-17 17:12:00,64.0,49.0,29.80,SW,221,1.0,7.0,59,0.00,,,-99.99,,2013-03-18 00:12:00,
2013-03-17 17:21:00,60.0,50.0,29.80,WSW,257,3.0,9.0,69,0.00,,,-99.99,,2013-03-18 00:21:00,
2013-03-17 17:22:00,63.0,50.0,29.81,WNW,292,1.0,5.0,62,0.00,,,-99.99,,2013-03-18 00:22:00,
2013-03-17 17:32:00,63.0,50.0,29.81,WNW,292,1.0,5.0,62,0.00,,,-99.99,,2013-03-18 00:32:00,
2013-03-17 17:42:00,63.0,50.0,29.81,WNW,292,1.0,5.0,62,0.00,,,-99.99,,2013-03-18 00:42:00,
2013-03-17 17:52:00,60.0,50.0,29.80,WSW,257,3.0,9.0,69,0.00,,,-99.99,,2013-03-18 00:52:00,
2013-03-17 18:01:00,60.0,50.0,29.80,WSW,257,3.0,9.0,69,0.00,,,-99.99,,2013-03-18 01:01:00,
2013-03-17 18:12:00,60.0,50.0,29.80,WSW,257,3.0,9.0,69,0.00,,,-99.99,,2013-03-18 01:12:00,
2013-03-17 18:52:00,59.0,49.0,29.82,West,279,2.0,6.0,70,0.00,,,-99.99,,2013-03-18 01:52:00,
2013-03-17 19:02:00,59.0,49.0,29.82,West,279,2.0,6.0,70,0.00,,,-99.99,,2013-03-18 02:02:00,
2013-03-17 19:12:00,59.0,49.0,29.82,West,279,2.0,6.0,70,0.00,,,-99.99,,2013-03-18 02:12:00,
2013-03-17 19:21:00,58.0,50.0,29.82,WNW,286,3.0,6.0,74,0.00,,,-99.99,,2013-03-18 02:21:00,
2013-03-17 19:32:00,58.0,50.0,29.82,WNW,286,3.0,6.0,74,0.00,,,-99.99,,2013-03-18 02:32:00,
2013-03-17 19:42:00,58.0,50.0,29.82,WNW,286,3.0,6.0,74,0.00,,,-99.99,,2013-03-18 02:42:00,
2013-03-17 19:52:00,57.0,49.0,29.81,West,281,0.0,2.0,75,0.00,,,-99.99,,2013-03-18 02:52:00,
2013-03-17 20:02:00,57.0,49.0,29.81,West,281,0.0,2.0,75,0.00,,,-99.99,,2013-03-18 03:02:00,
2013-03-17 20:11:00,57.0,49.0,29.81,West,281,0.0,2.0,75,0.00,,,-99.99,,2013-03-18 03:11:00,
2013-03-17 20:51:00,54.0,48.0,29.83,West,281,0.0,0.0,81,0.00,,,-99.99,,2013-03-18 03:51:00,
2013-03-17 20:53:00,55.0,49.0,29.83,West,281,0.0,2.0,79,0.00,,,-99.99,,2013-03-18 03:53:00,
2013-03-17 21:02:00,55.0,49.0,29.83,West,281,0.0,2.0,79,0.00,,,-99.99,,2013-03-18 04:02:00,
2013-03-17 21:12:00,55.0,49.0,29.83,West,281,0.0,2.0,79,0.00,,,-99.99,,2013-03-18 04:12:00,
2013-03-17 21:22:00,54.0,48.0,29.83,West,281,0.0,0.0,81,0.00,,,-99.99,,2013-03-18 04:22:00,
2013-03-17 21:33:00,54.0,48.0,29.83,West,281,0.0,0.0,81,0.00,,,-99.99,,2013-03-18 04:33:00,
2013-03-17 21:42:00,54.0,48.0,29.83,West,281,0.0,0.0,81,0.00,,,-99.99,,2013-03-18 04:42:00,
2013-03-17 22:21:00,52.0,48.0,29.85,West,281,0.0,0.0,85,0.00,,,-99.99,,2013-03-18 05:21:00,
2013-03-17 22:22:00,53.0,48.0,29.84,West,281,0.0,1.0,83,0.00,,,-99.99,,2013-03-18 05:22:00,
2013-03-17 22:32:00,53.0,48.0,29.84,West,281,0.0,1.0,83,0.00,,,-99.99,,2013-03-18 05:32:00,
2013-03-17 22:42:00,53.0,48.0,29.84,West,281,0.0,1.0,83,0.00,,,-99.99,,2013-03-18 05:42:00,
2013-03-17 22:52:00,52.0,48.0,29.85,West,281,0.0,0.0,85,0.00,,,-99.99,,2013-03-18 05:52:00,
2013-03-17 23:02:00,52.0,48.0,29.85,West,281,0.0,0.0,85,0.00,,,-99.99,,2013-03-18 06:02:00,
2013-03-17 23:12:00,52.0,48.0,29.85,West,281,0.0,0.0,85,0.00,,,-99.99,,2013-03-18 06:12:00,
2013-03-17 23:52:00,51.0,47.0,29.86,West,281,0.0,0.0,86,0.00,,,-99.99,,2013-03-18 06:52:00,